createdAt,value
2018-12-02T00:01:22.968Z,-1.40
2018-12-02T00:03:55.620Z,-1.40
2018-12-02T00:06:28.984Z,-1.40
2018-12-02T00:09:01.461Z,-1.40
2018-12-02T00:11:32.658Z,-1.40
2018-12-02T00:14:05.078Z,-1.50
2018-12-02T00:16:37.698Z,-1.50
2018-12-02T00:19:10.814Z,-1.40
2018-12-02T00:21:44.027Z,-1.40
2018-12-02T00:24:16.213Z,-1.40
2018-12-02T00:26:48.619Z,-1.50
2018-12-02T00:29:20.860Z,-1.40
2018-12-02T00:31:53.022Z,-1.50
2018-12-02T00:34:25.587Z,-1.40
2018-12-02T00:36:56.535Z,-1.40
2018-12-02T00:39:28.983Z,-1.40
2018-12-02T00:41:59.748Z,-1.50
2018-12-02T00:44:33.127Z,-1.50
2018-12-02T00:47:04.568Z,-1.50
2018-12-02T00:49:36.450Z,-1.50
2018-12-02T00:52:10.231Z,-1.50
2018-12-02T00:54:41.100Z,-1.50
2018-12-02T00:57:11.926Z,-1.50
2018-12-02T00:59:42.883Z,-1.50
2018-12-02T01:02:14.115Z,-1.50
2018-12-02T01:04:45.872Z,-1.50
2018-12-02T01:07:16.576Z,-1.50
2018-12-02T01:09:50.743Z,-1.50
2018-12-02T01:12:21.942Z,-1.50
2018-12-02T01:14:52.933Z,-1.50
2018-12-02T01:17:25.283Z,-1.50
2018-12-02T01:19:57.789Z,-1.50
2018-12-02T01:22:28.622Z,-1.50
2018-12-02T01:25:00.146Z,-1.50
2018-12-02T01:27:33.847Z,-1.50
2018-12-02T01:30:05.785Z,-1.40
2018-12-02T01:32:37.066Z,-1.40
2018-12-02T01:35:08.636Z,-1.40
2018-12-02T01:37:41.301Z,-1.50
2018-12-02T01:40:22.704Z,-1.50
2018-12-02T01:42:56.023Z,-1.50
2018-12-02T01:45:31.286Z,-1.50
2018-12-02T01:48:03.575Z,-1.50
2018-12-02T01:50:35.190Z,-1.50
2018-12-02T01:53:07.250Z,-1.50
2018-12-02T01:55:40.942Z,-1.50
2018-12-02T01:58:14.063Z,-1.50
2018-12-02T02:00:46.007Z,-1.50
2018-12-02T02:03:16.798Z,-1.50
2018-12-02T02:05:48.930Z,-1.50
2018-12-02T02:08:20.287Z,-1.50
2018-12-02T02:10:52.180Z,-1.50
2018-12-02T02:13:22.787Z,-1.50
2018-12-02T02:16:06.913Z,-1.50
2018-12-02T02:18:41.554Z,-1.40
2018-12-02T02:21:13.257Z,-1.40
2018-12-02T02:23:44.145Z,-1.40
2018-12-02T02:26:16.175Z,-1.60
2018-12-02T02:28:47.387Z,-1.60
2018-12-02T02:31:19.738Z,-1.60
2018-12-02T02:33:51.069Z,-1.60
2018-12-02T02:36:22.623Z,-1.60
2018-12-02T02:38:54.110Z,-1.60
2018-12-02T02:41:26.715Z,-1.60
2018-12-02T02:43:57.766Z,-1.70
2018-12-02T02:46:28.586Z,-1.70
2018-12-02T02:49:00.630Z,-1.70
2018-12-02T02:51:32.012Z,-1.80
2018-12-02T02:54:05.011Z,-1.70
2018-12-02T02:56:37.580Z,-1.80
2018-12-02T02:59:08.532Z,-1.80
2018-12-02T03:01:40.047Z,-1.80
2018-12-02T03:04:13.453Z,-1.70
2018-12-02T03:06:44.434Z,-1.70
2018-12-02T03:09:17.171Z,-1.70
2018-12-02T03:11:49.418Z,-1.70
2018-12-02T03:14:21.089Z,-1.70
2018-12-02T03:16:53.015Z,-1.70
2018-12-02T03:19:24.726Z,-1.60
2018-12-02T03:21:55.839Z,-1.60
2018-12-02T03:24:27.142Z,-1.60
2018-12-02T03:26:57.731Z,-1.60
2018-12-02T03:29:28.487Z,-1.60
2018-12-02T03:32:00.431Z,-1.60
2018-12-02T03:34:32.580Z,-1.50
2018-12-02T03:37:03.785Z,-1.50
2018-12-02T03:39:35.375Z,-1.50
2018-12-02T03:42:08.037Z,-1.50
2018-12-02T03:44:38.764Z,-1.50
2018-12-02T03:47:11.102Z,-1.40
2018-12-02T03:49:45.517Z,-1.50
2018-12-02T03:52:18.354Z,-1.50
2018-12-02T03:54:49.058Z,-1.40
2018-12-02T03:57:20.075Z,-1.40
2018-12-02T03:59:53.229Z,-1.40
2018-12-02T04:02:25.572Z,-1.40
2018-12-02T04:04:57.634Z,-1.40
2018-12-02T04:07:29.310Z,-1.30
2018-12-02T04:10:02.247Z,-1.30
2018-12-02T04:12:33.354Z,-1.40
2018-12-02T04:15:07.014Z,-1.30
2018-12-02T04:17:40.672Z,-1.40
2018-12-02T04:20:13.405Z,-1.30
2018-12-02T04:22:44.951Z,-1.30
2018-12-02T04:25:26.020Z,-1.20
2018-12-02T04:27:57.172Z,-1.30
2018-12-02T04:30:28.596Z,-1.20
2018-12-02T04:33:12.813Z,-1.20
2018-12-02T04:35:44.271Z,-1.20
2018-12-02T04:38:15.180Z,-1.20
2018-12-02T04:40:46.560Z,-1.20
2018-12-02T04:43:19.882Z,-1.20
2018-12-02T04:45:52.863Z,-1.10
2018-12-02T04:48:24.604Z,-1.10
2018-12-02T04:50:55.558Z,-1.00
2018-12-02T04:53:27.863Z,-1.00
2018-12-02T04:55:58.970Z,-1.00
2018-12-02T04:58:31.355Z,-1.00
2018-12-02T05:01:03.419Z,-1.00
2018-12-02T05:03:37.040Z,-1.00
2018-12-02T05:06:08.072Z,-1.00
2018-12-02T05:08:41.314Z,-1.00
2018-12-02T05:11:14.287Z,-1.00
2018-12-02T05:13:46.625Z,-1.00
2018-12-02T05:16:18.566Z,-1.00
2018-12-02T05:18:51.890Z,-1.00
2018-12-02T05:21:25.038Z,-0.90
2018-12-02T05:23:55.842Z,-1.00
2018-12-02T05:26:29.681Z,-0.90
2018-12-02T05:29:04.333Z,-1.00
2018-12-02T05:31:36.451Z,-1.00
2018-12-02T05:34:09.080Z,-1.00
2018-12-02T05:36:42.322Z,-1.00
2018-12-02T05:39:14.477Z,-1.00
2018-12-02T05:41:50.354Z,-1.00
2018-12-02T05:44:22.351Z,-1.00
2018-12-02T05:46:57.452Z,-1.00
2018-12-02T05:49:29.300Z,-1.00
2018-12-02T05:52:02.163Z,-1.00
2018-12-02T05:54:34.867Z,-1.00
2018-12-02T05:57:08.784Z,-1.00
2018-12-02T05:59:40.953Z,-1.00
2018-12-02T06:02:11.875Z,-1.00
2018-12-02T06:04:44.647Z,-1.00
2018-12-02T06:07:16.157Z,-1.00
2018-12-02T06:09:48.299Z,-1.00
2018-12-02T06:12:24.042Z,-0.90
2018-12-02T06:14:55.298Z,-0.90
2018-12-02T06:17:26.409Z,-0.80
2018-12-02T06:19:57.356Z,-0.70
2018-12-02T06:22:28.518Z,-0.60
2018-12-02T06:24:59.450Z,-0.70
2018-12-02T06:27:30.630Z,-0.70
2018-12-02T06:30:01.328Z,-0.70
2018-12-02T06:32:45.482Z,-0.80
2018-12-02T06:35:17.099Z,-0.80
2018-12-02T06:37:50.887Z,-0.80
2018-12-02T06:40:27.362Z,-0.80
2018-12-02T06:43:00.021Z,-0.80
2018-12-02T06:45:31.427Z,-0.80
2018-12-02T06:48:02.389Z,-0.70
2018-12-02T06:50:33.836Z,-0.70
2018-12-02T06:53:07.042Z,-0.60
2018-12-02T06:55:51.344Z,-0.70
2018-12-02T06:58:30.676Z,-0.70
2018-12-02T07:01:11.646Z,-0.70
2018-12-02T07:03:47.647Z,-0.70
2018-12-02T07:06:19.324Z,-0.70
2018-12-02T07:08:51.387Z,-0.70
2018-12-02T07:11:23.793Z,-0.70
2018-12-02T07:13:55.790Z,-0.70
2018-12-02T07:16:26.585Z,-0.70
2018-12-02T07:18:57.536Z,-0.70
2018-12-02T07:21:29.773Z,-0.70
2018-12-02T07:24:01.615Z,-0.70
2018-12-02T07:26:35.326Z,-0.60
2018-12-02T07:29:07.440Z,-0.70
2018-12-02T07:31:41.157Z,-0.70
2018-12-02T07:34:12.479Z,-0.70
2018-12-02T07:36:43.568Z,-0.70
2018-12-02T07:40:30.564Z,-0.70
2018-12-02T07:43:05.441Z,-0.60
2018-12-02T07:45:36.457Z,-0.60
2018-12-02T07:48:07.385Z,-0.60
2018-12-02T07:50:38.389Z,-0.60
2018-12-02T07:53:10.451Z,-0.60
2018-12-02T07:55:41.566Z,-0.50
2018-12-02T07:58:15.203Z,-0.60
2018-12-02T08:00:46.600Z,-0.60
2018-12-02T08:03:18.422Z,-0.60
2018-12-02T08:05:49.660Z,-0.60
2018-12-02T08:08:20.612Z,-0.60
2018-12-02T08:10:51.748Z,-0.60
2018-12-02T08:13:22.473Z,-0.60
2018-12-02T08:15:53.317Z,-0.60
2018-12-02T08:18:24.443Z,-0.60
2018-12-02T08:20:55.004Z,-0.60
2018-12-02T08:23:55.234Z,-0.60
2018-12-02T08:26:27.985Z,-0.60
2018-12-02T08:28:58.822Z,-0.60
2018-12-02T08:31:31.349Z,-0.60
2018-12-02T08:34:02.120Z,-0.50
2018-12-02T08:36:33.077Z,-0.50
2018-12-02T08:39:07.407Z,-0.50
2018-12-02T08:41:38.037Z,-0.50
2018-12-02T08:44:08.918Z,-0.50
2018-12-02T08:46:39.410Z,-0.50
2018-12-02T08:49:10.995Z,-0.50
2018-12-02T08:51:41.642Z,-0.50
2018-12-02T08:54:16.693Z,-0.50
2018-12-02T08:56:48.322Z,-0.50
2018-12-02T08:59:19.634Z,-0.50
2018-12-02T09:01:50.560Z,-0.50
2018-12-02T09:04:21.507Z,-0.40
2018-12-02T09:06:52.380Z,-0.40
2018-12-02T09:09:23.527Z,-0.40
2018-12-02T09:11:55.428Z,-0.40
2018-12-02T09:14:26.501Z,-0.40
2018-12-02T09:16:57.362Z,-0.40
2018-12-02T09:19:28.656Z,-0.30
2018-12-02T09:21:59.624Z,-0.30
2018-12-02T09:24:30.276Z,-0.30
2018-12-02T09:27:01.342Z,-0.30
2018-12-02T09:29:33.998Z,-0.30
2018-12-02T09:32:05.167Z,-0.30
2018-12-02T09:34:35.674Z,-0.20
2018-12-02T09:37:07.500Z,-0.20
2018-12-02T09:39:38.714Z,-0.20
2018-12-02T09:42:09.687Z,-0.20
2018-12-02T09:44:40.812Z,-0.20
2018-12-02T09:47:17.392Z,-0.10
2018-12-02T09:49:48.154Z,-0.10
2018-12-02T09:52:20.907Z,-0.10
2018-12-02T09:54:52.430Z,-0.10
2018-12-02T09:57:24.935Z,-0.10
2018-12-02T09:59:56.562Z,-0.10
2018-12-02T10:02:27.741Z,-0.10
2018-12-02T10:04:58.426Z,0.00
2018-12-02T10:07:29.853Z,0.00
2018-12-02T10:10:00.674Z,0.00
2018-12-02T10:12:39.536Z,0.00
2018-12-02T10:15:12.952Z,0.00
2018-12-02T10:17:45.066Z,0.00
2018-12-02T10:20:16.790Z,0.00
2018-12-02T10:22:48.128Z,0.10
2018-12-02T10:25:20.326Z,0.10
2018-12-02T10:27:52.630Z,0.10
2018-12-02T10:30:26.219Z,0.10
2018-12-02T10:32:58.113Z,0.10
2018-12-02T10:35:29.864Z,0.10
2018-12-02T10:38:00.917Z,0.10
2018-12-02T10:40:32.754Z,0.20
2018-12-02T10:43:02.392Z,0.30
2018-12-02T10:45:35.513Z,0.20
2018-12-02T10:48:11.066Z,0.20
2018-12-02T10:50:42.088Z,0.30
2018-12-02T10:53:18.398Z,0.40
2018-12-02T10:55:54.828Z,0.40
2018-12-02T10:58:28.679Z,0.40
2018-12-02T11:01:06.933Z,0.30
2018-12-02T11:03:37.556Z,0.30
2018-12-02T11:06:08.276Z,0.30
2018-12-02T11:08:40.599Z,0.40
2018-12-02T11:11:11.331Z,0.40
2018-12-02T11:13:42.186Z,0.40
2018-12-02T11:16:12.726Z,0.40
2018-12-02T11:18:44.273Z,0.40
2018-12-02T11:21:15.116Z,0.40
2018-12-02T11:23:46.535Z,0.50
2018-12-02T11:26:17.347Z,0.50
2018-12-02T11:28:47.975Z,0.50
2018-12-02T11:31:19.530Z,0.50
2018-12-02T11:33:49.970Z,0.60
2018-12-02T11:36:21.484Z,0.60
2018-12-02T11:38:52.657Z,0.60
2018-12-02T11:41:24.147Z,0.50
2018-12-02T11:43:54.985Z,0.50
2018-12-02T11:46:28.406Z,0.50
2018-12-02T11:49:00.286Z,0.50
2018-12-02T11:51:32.168Z,0.60
2018-12-02T11:54:06.644Z,0.50
2018-12-02T11:56:37.058Z,0.50
2018-12-02T11:59:07.952Z,0.50
2018-12-02T12:01:38.602Z,0.50
2018-12-02T12:04:09.470Z,0.50
2018-12-02T12:06:40.427Z,0.50
2018-12-02T12:09:11.723Z,0.60
2018-12-02T12:11:42.830Z,0.60
2018-12-02T12:14:13.784Z,0.60
2018-12-02T12:16:44.704Z,0.60
2018-12-02T12:19:15.439Z,0.60
2018-12-02T12:21:46.431Z,0.60
2018-12-02T12:24:16.937Z,0.60
2018-12-02T12:26:47.741Z,0.60
2018-12-02T12:29:19.341Z,0.60
2018-12-02T12:31:50.122Z,0.60
2018-12-02T12:34:21.644Z,0.60
2018-12-02T12:36:53.475Z,0.60
2018-12-02T12:39:24.171Z,0.60
2018-12-02T12:41:55.955Z,0.60
2018-12-02T12:44:26.876Z,0.60
2018-12-02T12:46:58.761Z,0.60
2018-12-02T12:49:31.027Z,0.60
2018-12-02T12:52:02.064Z,0.70
2018-12-02T12:54:34.068Z,0.70
2018-12-02T12:57:04.832Z,0.70
2018-12-02T12:59:35.583Z,0.70
2018-12-02T13:02:06.619Z,0.70
2018-12-02T13:04:38.518Z,0.80
2018-12-02T13:07:10.334Z,0.80
2018-12-02T13:09:41.239Z,0.80
2018-12-02T13:12:15.768Z,0.80
2018-12-02T13:14:47.471Z,0.80
2018-12-02T13:17:18.022Z,0.90
2018-12-02T13:19:48.786Z,0.80
2018-12-02T13:22:19.648Z,0.80
2018-12-02T13:24:50.412Z,0.80
2018-12-02T13:27:21.552Z,0.80
2018-12-02T13:29:53.518Z,0.80
2018-12-02T13:32:25.326Z,0.70
2018-12-02T13:34:56.174Z,0.80
2018-12-02T13:37:27.480Z,0.70
2018-12-02T13:39:58.632Z,0.70
2018-12-02T13:42:29.391Z,0.60
2018-12-02T13:45:00.094Z,0.60
2018-12-02T13:47:30.770Z,0.60
2018-12-02T13:50:02.144Z,0.60
2018-12-02T13:52:32.842Z,0.60
2018-12-02T13:55:03.552Z,0.70
2018-12-02T13:57:34.405Z,0.70
2018-12-02T14:00:09.401Z,0.70
2018-12-02T14:02:42.269Z,0.70
2018-12-02T14:05:14.202Z,0.70
2018-12-02T14:07:45.358Z,0.80
2018-12-02T14:10:17.146Z,0.70
2018-12-02T14:12:55.954Z,0.70
2018-12-02T14:15:46.288Z,0.70
2018-12-02T14:18:28.730Z,0.70
2018-12-02T14:20:59.490Z,0.70
2018-12-02T14:23:32.077Z,0.70
2018-12-02T14:26:12.728Z,0.70
2018-12-02T14:28:54.034Z,0.70
2018-12-02T14:31:29.583Z,0.70
2018-12-02T14:34:04.374Z,0.60
2018-12-02T14:36:38.269Z,0.70
2018-12-02T14:39:15.944Z,0.70
2018-12-02T14:41:48.690Z,0.70
2018-12-02T14:44:22.250Z,0.70
2018-12-02T14:46:56.814Z,0.60
2018-12-02T14:49:31.179Z,0.60
2018-12-02T14:52:06.966Z,0.60
2018-12-02T14:54:42.604Z,0.60
2018-12-02T14:57:15.705Z,0.50
2018-12-02T14:59:49.223Z,0.50
2018-12-02T15:02:25.163Z,0.40
2018-12-02T15:05:00.496Z,0.40
2018-12-02T15:07:34.583Z,0.50
2018-12-02T15:10:13.249Z,0.50
2018-12-02T15:12:49.702Z,0.40
2018-12-02T15:15:24.082Z,0.40
2018-12-02T15:17:57.578Z,0.40
2018-12-02T15:20:28.671Z,0.40
2018-12-02T15:22:59.766Z,0.40
2018-12-02T15:25:30.937Z,0.40
2018-12-02T15:28:01.456Z,0.40
2018-12-02T15:30:32.081Z,0.40
2018-12-02T15:33:02.960Z,0.60
2018-12-02T15:35:33.695Z,0.50
2018-12-02T15:38:04.434Z,0.60
2018-12-02T15:40:36.156Z,0.60
2018-12-02T15:43:09.057Z,0.50
2018-12-02T15:45:39.972Z,0.50
2018-12-02T15:48:15.122Z,0.60
2018-12-02T15:50:50.419Z,0.60
2018-12-02T15:53:20.737Z,0.60
2018-12-02T15:55:52.526Z,0.50
2018-12-02T15:58:24.532Z,0.50
2018-12-02T16:00:56.920Z,0.50
2018-12-02T16:03:28.819Z,0.50
2018-12-02T16:05:59.890Z,0.60
2018-12-02T16:08:30.884Z,0.60
2018-12-02T16:11:02.575Z,0.60
2018-12-02T16:13:34.964Z,0.60
2018-12-02T16:16:06.010Z,0.60
2018-12-02T16:18:37.004Z,0.60
2018-12-02T16:21:08.263Z,0.60
2018-12-02T16:23:40.162Z,0.60
2018-12-02T16:26:13.030Z,0.60
2018-12-02T16:28:44.280Z,0.60
2018-12-02T16:31:14.875Z,0.60
2018-12-02T16:33:45.689Z,0.50
2018-12-02T16:36:16.279Z,0.50
2018-12-02T16:38:47.420Z,0.50
2018-12-02T16:41:19.224Z,0.50
2018-12-02T16:43:51.337Z,0.50
2018-12-02T16:46:22.233Z,0.50
2018-12-02T16:48:52.983Z,0.50
2018-12-02T16:51:23.682Z,0.50
2018-12-02T16:53:54.719Z,0.50
2018-12-02T16:56:26.551Z,0.40
2018-12-02T17:02:04.936Z,0.40
2018-12-02T17:04:30.564Z,0.40
2018-12-02T17:07:05.365Z,0.50
2018-12-02T17:09:36.471Z,0.50
2018-12-02T17:12:07.454Z,0.50
2018-12-02T17:14:38.763Z,0.50
2018-12-02T17:17:10.348Z,0.50
2018-12-02T17:19:40.940Z,0.50
2018-12-02T17:22:11.950Z,0.50
2018-12-02T17:24:42.650Z,0.50
2018-12-02T17:27:14.301Z,0.50
2018-12-02T17:29:44.824Z,0.50
2018-12-02T17:32:15.867Z,0.50
2018-12-02T17:34:47.228Z,0.50
2018-12-02T17:37:19.294Z,0.50
2018-12-02T17:39:53.872Z,0.60
2018-12-02T17:42:24.486Z,0.60
2018-12-02T17:44:55.852Z,0.60
2018-12-02T17:47:26.858Z,0.60
2018-12-02T17:49:57.465Z,0.60
2018-12-02T17:52:28.382Z,0.60
2018-12-02T17:55:00.415Z,0.60
2018-12-02T17:57:31.160Z,0.60
2018-12-02T18:00:01.883Z,0.60
2018-12-02T18:02:32.661Z,0.60
2018-12-02T18:05:03.901Z,0.60
2018-12-02T18:07:35.228Z,0.60
2018-12-02T18:10:08.508Z,0.60
2018-12-02T18:12:39.436Z,0.60
2018-12-02T18:15:13.396Z,0.50
2018-12-02T18:17:46.111Z,0.50
2018-12-02T18:20:19.038Z,0.50
2018-12-02T18:22:50.884Z,0.50
2018-12-02T18:25:22.154Z,0.50
2018-12-02T18:27:53.356Z,0.50
2018-12-02T18:30:26.594Z,0.60
2018-12-02T18:33:01.024Z,0.60
2018-12-02T18:36:00.243Z,0.60
2018-12-02T18:38:33.603Z,0.60
2018-12-02T18:41:21.489Z,0.60
2018-12-02T18:43:52.642Z,0.60
2018-12-02T18:46:25.146Z,0.60
2018-12-02T18:48:56.863Z,0.60
2018-12-02T18:51:28.230Z,0.50
2018-12-02T18:53:59.215Z,0.60
2018-12-02T18:56:31.735Z,0.60
2018-12-02T18:59:02.431Z,0.60
2018-12-02T19:01:33.624Z,0.60
2018-12-02T19:04:04.946Z,0.60
2018-12-02T19:06:35.918Z,0.60
2018-12-02T19:09:11.239Z,0.60
2018-12-02T19:11:42.254Z,0.50
2018-12-02T19:14:13.346Z,0.60
2018-12-02T19:16:45.997Z,0.60
2018-12-02T19:19:17.055Z,0.60
2018-12-02T19:21:47.811Z,0.60
2018-12-02T19:24:19.898Z,0.60
2018-12-02T19:26:51.695Z,0.60
2018-12-02T19:29:22.830Z,0.60
2018-12-02T19:31:53.838Z,0.60
2018-12-02T19:34:25.683Z,0.60
2018-12-02T19:37:01.503Z,0.60
2018-12-02T19:39:33.263Z,0.60
2018-12-02T19:42:04.702Z,0.70
2018-12-02T19:44:36.554Z,0.60
2018-12-02T19:47:08.948Z,0.60
2018-12-02T19:49:39.755Z,0.70
2018-12-02T19:52:12.539Z,0.70
2018-12-02T19:54:43.697Z,0.70
2018-12-02T19:57:14.515Z,0.60
2018-12-02T19:59:46.630Z,0.60
2018-12-02T20:02:19.760Z,0.70
2018-12-02T20:04:50.397Z,0.70
2018-12-02T20:07:21.424Z,0.70
2018-12-02T20:09:51.998Z,0.70
2018-12-02T20:12:28.465Z,0.70
2018-12-02T20:15:00.619Z,0.70
2018-12-02T20:17:31.527Z,0.70
2018-12-02T20:20:08.456Z,0.70
2018-12-02T20:22:39.510Z,0.70
2018-12-02T20:25:10.892Z,0.70
2018-12-02T20:27:42.316Z,0.70
2018-12-02T20:30:22.564Z,0.70
2018-12-02T20:32:53.330Z,0.70
2018-12-02T20:35:24.316Z,0.70
2018-12-02T20:37:56.159Z,0.70
2018-12-02T20:40:27.269Z,0.70
2018-12-02T20:42:58.236Z,0.70
2018-12-02T20:45:28.972Z,0.60
2018-12-02T20:47:59.629Z,0.70
2018-12-02T20:50:30.625Z,0.70
2018-12-02T20:53:01.919Z,0.60
2018-12-02T20:55:32.956Z,0.70
2018-12-02T20:58:04.324Z,0.70
2018-12-02T21:00:35.567Z,0.60
2018-12-02T21:03:20.141Z,0.60
2018-12-02T21:06:07.396Z,0.60
2018-12-02T21:08:38.116Z,0.60
2018-12-02T21:11:09.168Z,0.70
2018-12-02T21:13:40.008Z,0.70
2018-12-02T21:16:12.096Z,0.70
2018-12-02T21:18:42.794Z,0.70
2018-12-02T21:21:13.686Z,0.70
2018-12-02T21:23:44.951Z,0.60
2018-12-02T21:26:15.774Z,0.60
2018-12-02T21:28:47.202Z,0.60
2018-12-02T21:31:18.171Z,0.60
2018-12-02T21:33:49.204Z,0.60
2018-12-02T21:36:20.348Z,0.60
2018-12-02T21:38:51.182Z,0.60
2018-12-02T21:41:21.740Z,0.50
2018-12-02T21:43:54.559Z,0.50
2018-12-02T21:46:25.342Z,0.50
2018-12-02T21:48:55.928Z,0.50
2018-12-02T21:51:26.868Z,0.60
2018-12-02T21:53:58.000Z,0.60
2018-12-02T21:56:29.356Z,0.50
2018-12-02T21:59:00.319Z,0.50
2018-12-02T22:01:30.881Z,0.50
2018-12-02T22:04:01.738Z,0.50
2018-12-02T22:06:33.460Z,0.50
2018-12-02T22:09:04.558Z,0.50
2018-12-02T22:11:35.272Z,0.40
2018-12-02T22:14:06.094Z,0.40
2018-12-02T22:16:38.071Z,0.40
2018-12-02T22:19:08.929Z,0.40
2018-12-02T22:21:39.855Z,0.40
2018-12-02T22:24:10.522Z,0.50
2018-12-02T22:26:55.779Z,0.50
2018-12-02T22:29:26.312Z,0.40
2018-12-02T22:31:56.887Z,0.50
2018-12-02T22:34:27.643Z,0.50
2018-12-02T22:36:59.018Z,0.40
2018-12-02T22:39:30.110Z,0.50
2018-12-02T22:42:00.557Z,0.50
2018-12-02T22:44:31.539Z,0.40
2018-12-02T22:47:02.052Z,0.40
2018-12-02T22:49:34.109Z,0.40
2018-12-02T22:52:05.454Z,0.40
2018-12-02T22:54:35.815Z,0.50
2018-12-02T22:57:06.953Z,0.50
2018-12-02T22:59:37.784Z,0.50
2018-12-02T23:02:14.030Z,0.50
2018-12-02T23:04:45.999Z,0.50
2018-12-02T23:07:16.727Z,0.50
2018-12-02T23:09:47.414Z,0.50
2018-12-02T23:12:18.199Z,0.50
2018-12-02T23:14:49.781Z,0.50
2018-12-02T23:17:23.731Z,0.50
2018-12-02T23:19:54.609Z,0.50
2018-12-02T23:22:25.559Z,0.50
2018-12-02T23:24:56.549Z,0.50
2018-12-02T23:27:28.704Z,0.50
2018-12-02T23:29:59.590Z,0.50
2018-12-02T23:32:30.608Z,0.50
2018-12-02T23:35:02.268Z,0.50
2018-12-02T23:37:33.609Z,0.60
2018-12-02T23:40:04.402Z,0.60
2018-12-02T23:42:35.044Z,0.60
2018-12-02T23:45:07.414Z,0.60
2018-12-02T23:47:39.454Z,0.60
2018-12-02T23:50:17.794Z,0.60
2018-12-02T23:52:49.018Z,0.60
2018-12-02T23:55:20.662Z,0.60
2018-12-02T23:57:51.427Z,0.50
